Date,TemperatureHighF,TemperatureAvgF,TemperatureLowF,DewpointHighF,DewpointAvgF,DewpointLowF,HumidityHigh,HumidityAvg,HumidityLow,PressureMaxIn,PressureMinIn,WindSpeedMaxMPH,WindSpeedAvgMPH,GustSpeedMaxMPH,PrecipitationSumIn
2013-6-30,73.3,69.9,66.7,68.0,65.7,63.0,97,86,78,29.84,29.75,3,1,7,0.63
2013-7-1,73.3,66.9,62.6,69.0,64.2,61.0,98,91,82,29.93,29.82,6,1,8,0.68
2013-7-2,81.9,70.8,64.0,69.0,65.6,63.0,99,85,57,30.01,29.92,1,0,3,0.19
2013-7-3,81.3,71.8,62.4,68.0,65.5,62.0,100,82,56,30.10,30.01,3,0,6,0.00
2013-7-4,70.9,68.7,66.7,69.0,67.7,66.0,99,96,92,30.15,30.05,0,0,1,0.10
2013-7-5,78.2,70.8,65.2,70.0,67.8,65.0,100,91,75,30.14,30.07,0,0,3,0.01
2013-7-6,73.1,69.3,66.6,71.0,68.2,66.0,99,96,90,30.11,30.05,1,0,5,0.22
2013-7-7,82.6,71.5,63.3,70.0,66.8,63.0,100,87,60,30.12,30.03,3,0,4,0.00
2013-7-8,85.7,75.3,66.3,74.0,69.8,66.0,98,84,63,30.13,30.03,3,0,11,0.00
2013-7-9,88.4,79.5,72.1,77.0,73.2,70.0,96,81,62,30.07,29.96,3,0,8,0.34
2013-7-10,88.2,78.0,69.9,78.0,72.4,66.0,96,83,64,29.98,29.80,8,0,13,0.01
2013-7-11,78.4,71.7,62.3,69.0,62.0,57.0,96,73,52,30.02,29.92,6,1,11,0.00
2013-7-12,78.2,67.7,57.7,61.0,57.7,54.0,96,73,46,30.11,30.02,4,1,7,0.00
2013-7-13,83.0,72.7,63.1,68.0,63.7,60.0,92,75,54,30.13,30.06,3,0,6,0.00
2013-7-14,89.9,77.7,66.8,75.0,70.1,65.0,98,79,56,30.20,30.11,2,0,4,0.49
2013-7-15,90.9,78.9,70.3,74.0,71.3,70.0,100,80,50,30.29,30.20,4,0,6,0.00
2013-7-16,92.9,80.4,69.6,74.0,71.6,69.0,100,77,50,30.32,30.24,2,0,4,0.00
2013-7-17,90.1,80.5,71.4,76.0,73.0,71.0,99,80,56,30.32,30.18,5,0,7,0.00
2013-7-18,93.5,81.0,70.9,76.0,72.7,70.0,98,78,49,30.20,30.01,3,0,4,0.00
2013-7-19,90.6,80.9,73.4,77.0,74.3,72.0,98,81,61,30.03,29.86,3,0,8,0.00
2013-7-20,87.8,76.3,69.3,76.0,71.2,67.0,97,84,66,29.92,29.83,4,1,10,0.05
2013-7-21,83.9,75.0,66.0,73.0,69.8,66.0,99,85,61,29.96,29.87,4,0,4,0.00
2013-7-22,81.4,73.6,69.1,73.0,70.3,68.0,97,90,71,29.89,29.75,4,0,6,0.20
2013-7-23,87.4,75.6,67.3,76.0,70.5,65.0,99,85,65,29.83,29.72,5,1,9,0.02
2013-7-24,75.1,66.2,57.0,63.0,58.0,55.0,93,76,57,30.00,29.83,5,1,8,0.00
2013-7-25,77.3,65.5,54.2,59.0,55.9,52.0,94,73,49,30.09,30.01,4,0,6,0.00
2013-7-26,80.7,67.2,55.1,64.0,59.3,54.0,99,78,49,30.10,29.97,2,0,5,0.00
2013-7-27,77.3,68.0,60.6,66.0,61.4,54.0,98,81,50,29.97,29.85,6,0,11,1.03
2013-7-28,72.4,61.2,49.9,56.0,52.3,49.0,97,75,50,30.07,29.92,4,0,7,0.00
2013-7-29,78.3,63.9,52.5,60.0,55.8,51.0,97,77,47,30.19,30.07,6,0,8,0.00
2013-7-30,76.8,66.6,55.5,66.0,60.9,55.0,99,83,60,30.22,30.11,1,0,3,0.00
2013-7-31,75.8,69.2,64.3,69.0,65.9,62.0,98,89,77,30.11,29.94,1,0,3,0.01
2013-8-1,81.1,70.4,62.3,68.0,63.2,55.0,98,80,44,30.00,29.93,5,0,8,0.00
2013-8-2,82.1,69.4,56.4,68.0,61.9,56.0,98,79,54,30.02,29.95,4,0,11,0.00
2013-8-3,79.6,72.1,66.4,70.0,66.1,61.0,97,82,60,30.04,29.95,6,1,7,0.21
2013-8-4,76.2,66.7,54.3,61.0,55.5,52.0,94,69,44,30.15,30.04,6,1,8,0.00
2013-8-5,80.4,67.0,55.0,62.0,57.6,55.0,99,75,45,30.12,29.95,1,0,4,0.00
2013-8-6,82.5,72.1,64.8,71.0,64.8,59.0,96,78,67,29.97,29.90,4,0,4,0.00
2013-8-7,84.8,75.3,67.7,74.0,71.4,67.0,99,88,69,29.93,29.86,1,0,7,0.00
2013-8-8,87.7,76.4,69.4,75.0,71.9,69.0,99,87,60,29.94,29.86,4,0,6,2.31
2013-8-9,81.1,73.2,69.3,73.0,70.2,68.0,99,91,67,30.02,29.89,3,0,7,0.01
2013-8-10,84.5,74.0,67.6,73.0,69.2,67.0,98,86,63,30.10,30.02,2,0,3,0.00
2013-8-11,84.6,73.3,64.7,71.0,67.0,64.0,100,82,55,30.09,30.03,3,0,6,0.00
2013-8-12,83.1,71.7,62.5,72.0,67.4,62.0,99,87,64,30.08,29.86,4,0,6,0.19
2013-8-13,75.6,69.1,58.3,71.0,62.2,51.0,99,80,59,30.07,29.86,6,1,10,0.01
2013-8-14,69.4,58.9,51.3,53.0,50.3,48.0,92,75,49,30.18,30.07,3,1,6,0.00
2013-8-15,71.5,59.3,48.6,57.0,52.5,48.0,98,80,55,30.19,30.10,2,0,4,0.00
2013-8-16,75.8,64.6,52.5,58.0,55.2,51.0,96,74,46,30.17,30.11,4,0,5,0.00
2013-8-17,79.3,67.0,56.9,63.0,58.2,54.0,91,75,51,30.19,30.11,6,0,7,0.00
2013-8-18,81.1,68.1,57.0,64.0,59.7,56.0,98,77,45,30.19,30.09,1,0,4,0.00
2013-8-19,83.7,69.5,56.8,67.0,61.0,56.0,100,78,47,30.14,30.06,3,0,5,0.00
2013-8-20,85.5,72.3,60.1,70.0,64.7,60.0,99,80,50,30.16,30.08,2,0,4,0.00
2013-8-21,87.8,76.0,65.6,73.0,68.8,65.0,99,80,55,30.15,30.04,2,0,5,0.00
2013-8-22,84.7,72.8,66.2,73.0,69.0,66.0,98,88,64,30.11,30.01,3,0,15,0.78
2013-8-23,81.6,71.2,65.4,69.0,66.4,64.0,99,86,57,30.14,30.04,3,0,5,0.06
2013-8-24,85.0,71.5,58.3,67.0,61.8,57.0,97,74,42,30.26,30.14,2,0,5,0.00
2013-8-25,86.9,71.5,59.1,66.0,61.8,59.0,99,75,40,30.32,30.21,2,0,4,0.00
2013-8-26,86.8,73.6,61.6,74.0,67.4,60.0,99,82,57,30.25,30.07,2,0,7,0.00
2013-8-27,89.3,77.6,69.4,77.0,72.5,69.0,98,85,64,30.09,29.95,2,0,6,0.00
2013-8-28,92.1,79.6,72.8,78.0,73.0,70.0,98,82,52,29.97,29.87,5,0,11,0.18
2013-8-29,84.3,76.4,69.4,75.0,70.8,68.0,98,84,60,30.02,29.95,3,0,4,0.00
2013-8-30,89.3,75.7,64.3,74.0,68.9,64.0,100,82,52,29.99,29.83,2,0,4,0.00
2013-8-31,93.7,76.3,68.6,77.0,71.4,67.0,98,86,54,29.91,29.72,9,0,21,1.68
2013-9-1,83.4,73.3,66.0,73.0,69.4,66.0,99,88,68,29.82,29.76,2,0,6,0.08
2013-9-2,82.2,73.9,67.9,74.0,68.1,61.0,99,83,55,29.89,29.78,3,0,10,0.00
2013-9-3,73.7,64.5,56.0,61.0,56.5,53.0,95,77,54,30.06,29.89,4,1,9,0.00
2013-9-4,80.7,65.5,53.4,64.0,58.3,53.0,100,80,49,30.16,30.06,3,0,4,0.00
2013-9-5,83.6,69.5,57.1,66.0,61.1,57.0,99,77,48,30.20,30.13,2,0,5,0.00
2013-9-6,81.5,67.0,56.4,63.0,54.8,50.0,92,67,39,30.23,30.09,2,0,3,0.00
2013-9-7,85.0,70.6,57.2,70.0,62.8,55.0,93,78,51,30.10,29.95,2,0,5,0.00
2013-9-8,88.8,75.2,64.4,74.0,68.2,64.0,99,81,51,29.98,29.91,3,0,4,0.00
2013-9-9,89.4,77.3,66.2,72.0,69.3,66.0,99,78,52,30.02,29.94,4,0,6,0.00
2013-9-10,92.5,78.3,72.1,77.0,71.7,68.0,94,81,56,30.11,30.00,5,0,7,0.00
2013-9-11,90.4,77.4,69.1,75.0,70.2,67.0,95,80,54,30.14,30.01,2,0,5,0.00
2013-9-12,78.5,72.4,62.8,71.0,68.4,57.0,97,87,65,30.01,29.87,4,0,12,0.29
2013-9-13,64.6,59.2,52.3,58.0,48.8,43.0,95,71,47,30.09,29.94,8,2,18,0.00
2013-9-14,69.4,55.1,43.3,50.0,44.5,40.0,96,71,35,30.20,30.09,2,0,5,0.00
2013-9-15,76.3,60.6,46.1,59.0,51.3,45.0,98,75,42,30.16,30.03,4,0,8,0.00
2013-9-16,69.9,62.2,56.2,59.0,56.0,52.0,93,81,61,30.28,30.08,4,1,7,0.01
2013-9-17,74.3,60.9,50.3,57.0,53.0,49.0,94,77,47,30.34,30.16,2,0,4,0.00
2013-9-18,77.9,65.7,56.3,66.0,60.1,54.0,96,83,61,30.17,30.05,1,0,4,0.00
2013-9-19,78.2,68.9,64.3,71.0,66.8,64.0,99,93,76,30.10,29.96,4,0,8,0.92
2013-9-20,83.3,71.4,67.3,72.0,68.3,66.0,98,90,67,29.98,29.79,5,0,9,0.46
2013-9-21,70.3,62.5,55.9,67.0,55.6,49.0,98,80,48,29.89,29.72,5,1,10,0.38
2013-9-22,66.1,54.9,45.2,50.0,47.3,44.0,99,78,47,30.03,29.89,3,0,7,0.00
2013-9-23,68.6,54.4,43.7,51.0,47.5,43.0,98,80,49,30.13,30.03,3,0,6,0.05
2013-9-24,74.0,57.9,45.5,61.0,52.1,45.0,98,82,58,30.10,29.93,3,0,6,0.00
2013-9-25,75.7,62.5,53.0,60.0,55.3,52.0,97,79,53,29.94,29.86,3,0,6,0.00
2013-9-26,76.7,60.1,46.1,61.0,54.1,46.0,99,83,50,30.09,29.93,3,0,7,0.00
2013-9-27,79.7,62.6,49.7,61.0,53.7,49.0,99,77,37,30.18,30.08,1,0,3,0.00
2013-9-28,80.2,62.1,47.1,61.0,55.1,47.0,100,81,45,30.19,30.06,3,0,8,0.00
2013-9-29,63.1,59.3,53.5,61.0,58.4,53.0,100,96,86,30.07,30.01,2,0,8,0.25
2013-9-30,72.2,62.8,57.2,65.0,61.1,57.0,99,95,76,30.04,29.95,4,0,6,0.02
2013-10-1,76.2,63.7,54.7,66.0,60.6,55.0,100,90,66,30.09,30.01,5,0,8,0.00
2013-10-2,73.6,65.8,58.9,69.0,64.7,59.0,100,96,84,30.12,30.04,0,0,3,0.00
2013-10-3,80.5,71.2,65.4,70.0,67.1,65.0,100,88,63,30.08,29.98,7,1,15,0.02
2013-10-4,82.9,71.6,63.5,71.0,67.1,63.0,99,86,65,30.07,30.00,4,0,7,0.00
2013-10-5,76.7,70.0,65.1,71.0,68.0,65.0,99,93,83,30.04,29.93,3,0,11,0.46
2013-10-6,68.4,60.7,49.9,67.0,59.8,47.0,99,97,85,29.93,29.73,8,0,13,3.50
2013-10-7,60.3,50.1,43.8,48.0,45.1,43.0,99,84,61,30.19,29.86,6,1,10,0.00
2013-10-8,66.8,51.5,40.0,51.0,44.8,40.0,100,81,43,30.30,30.19,3,0,8,0.00
2013-10-9,72.6,54.9,43.2,53.0,47.5,42.0,98,80,44,30.26,30.17,2,0,5,0.00
2013-10-10,72.1,54.3,41.2,52.0,46.8,41.0,100,80,39,30.22,30.10,4,0,7,0.00
2013-10-11,77.3,57.8,44.1,57.0,50.1,44.0,100,80,41,30.14,30.04,2,0,4,0.00
2013-10-12,78.3,60.1,47.7,61.0,53.6,48.0,100,82,43,30.12,30.05,3,0,5,0.00
2013-10-13,72.8,61.9,48.5,60.0,53.3,43.0,99,76,37,30.32,30.13,5,1,8,0.00
2013-10-14,70.2,55.1,44.6,51.0,46.0,42.0,94,74,42,30.35,30.19,4,0,6,0.00
2013-10-15,71.7,59.3,49.0,63.0,57.3,47.0,99,93,75,30.19,29.95,8,0,9,0.18
2013-10-16,63.7,58.2,45.7,62.0,54.3,45.0,99,87,60,29.98,29.89,6,0,8,0.26
2013-10-17,52.9,45.7,39.1,49.0,43.9,39.0,100,93,77,30.01,29.92,5,0,9,0.13
2013-10-18,64.1,50.1,40.1,50.0,44.1,40.0,100,83,49,30.07,29.96,7,1,12,0.00
2013-10-19,50.1,44.5,36.6,46.0,41.1,36.0,97,88,65,30.03,29.86,6,0,11,0.24
2013-10-20,61.0,48.0,36.8,44.0,39.9,35.0,94,76,51,30.06,30.00,7,1,13,0.00
2013-10-21,62.9,52.0,40.7,49.0,43.7,38.0,92,75,54,30.02,29.91,5,1,12,0.02
2013-10-22,52.4,41.3,28.1,43.0,32.1,27.0,98,73,41,30.07,29.86,6,0,11,0.03
2013-10-23,44.5,39.9,35.2,40.0,35.0,29.0,96,84,56,30.09,29.77,5,1,12,0.14
2013-10-24,41.5,36.4,31.6,36.0,33.4,31.0,96,89,73,30.33,30.08,5,0,9,0.04
2013-10-25,48.1,34.5,24.7,33.0,27.1,24.0,97,77,42,30.50,30.33,5,0,9,0.00
2013-10-26,54.0,40.6,27.5,40.0,32.1,25.0,91,72,56,30.32,29.98,9,1,19,0.00
2013-10-27,56.2,40.7,29.0,40.0,33.5,29.0,99,79,43,30.15,30.08,4,0,7,0.00
2013-10-28,60.9,41.9,28.5,40.0,33.7,28.0,99,78,37,30.34,30.13,3,0,6,0.00
2013-10-29,56.6,45.5,33.9,49.0,40.6,33.0,98,84,65,30.39,30.23,1,0,3,0.01
2013-10-30,64.2,57.8,50.5,63.0,57.3,49.0,99,98,93,30.23,30.00,2,0,6,0.26
2013-10-31,65.3,62.4,56.1,64.0,59.6,55.0,98,90,81,30.00,29.34,9,2,19,1.19
2013-11-1,62.4,54.7,46.6,55.0,47.2,42.0,96,78,51,29.78,29.44,8,2,15,0.00
2013-11-2,54.7,47.7,40.3,44.0,40.0,35.0,96,76,54,30.13,29.77,11,1,12,0.00
2013-11-3,54.5,41.9,33.6,41.0,36.7,33.0,99,84,46,30.38,30.13,2,0,5,0.00
2013-11-4,55.8,47.3,36.7,45.0,39.9,35.0,94,76,56,30.42,30.32,5,0,7,0.00
2013-11-5,60.7,52.6,47.8,48.0,44.7,41.0,97,76,54,30.42,30.21,5,0,6,0.02
2013-11-6,60.3,55.7,42.5,58.0,49.7,41.0,97,81,61,30.21,29.99,10,2,16,0.50
2013-11-7,47.4,41.3,35.3,41.0,33.0,27.0,96,74,46,30.31,30.08,9,1,11,0.01
2013-11-8,50.1,37.5,27.3,34.0,30.2,26.0,97,77,44,30.42,30.26,9,1,11,0.00
2013-11-9,60.1,49.6,39.1,42.0,34.9,28.0,74,58,45,30.27,30.05,9,2,22,0.00
2013-11-10,49.6,42.0,29.1,42.0,33.1,28.0,96,72,52,30.38,30.14,10,1,14,0.00
2013-11-11,54.4,41.2,26.8,45.0,33.9,26.0,98,78,40,30.35,30.13,6,1,15,0.12
2013-11-12,35.5,29.5,24.5,32.0,23.1,20.0,96,78,57,30.68,30.33,7,2,12,0.02
2013-11-13,38.6,27.9,17.4,23.0,19.1,16.0,96,73,40,30.70,30.45,6,1,10,0.00
2013-11-14,53.9,40.4,29.2,24.0,20.9,18.0,71,49,26,30.44,30.18,9,1,13,0.00
2013-11-15,49.6,44.7,37.8,44.0,29.6,21.0,89,57,43,30.19,30.11,4,0,6,0.00
2013-11-16,58.7,52.2,46.9,57.0,49.9,43.0,97,92,86,30.14,29.90,6,1,11,0.02
2013-11-17,65.2,59.3,49.9,63.0,55.7,40.0,99,88,62,29.89,29.49,12,3,24,1.64
2013-11-18,51.5,44.6,32.6,42.0,34.9,26.0,89,70,50,30.23,29.81,12,3,24,0.00
2013-11-19,41.0,32.5,26.9,30.0,27.4,25.0,95,82,64,30.38,30.23,4,0,8,0.00
2013-11-20,50.9,37.9,27.3,35.0,30.0,25.0,94,75,49,30.37,30.25,4,0,8,0.00
2013-11-21,57.1,48.8,41.2,48.0,41.8,32.0,96,77,60,30.33,30.21,4,0,7,0.07
2013-11-22,52.4,46.7,37.2,52.0,44.6,33.0,99,92,80,30.41,30.18,5,1,13,0.07
2013-11-23,37.1,29.2,20.8,33.0,22.7,11.0,95,77,61,30.63,30.40,9,2,18,0.00
2013-11-24,26.5,20.4,15.5,17.0,13.9,11.0,92,77,55,30.75,30.58,5,1,7,0.00
2013-11-25,35.6,28.0,15.1,29.0,17.6,13.0,93,67,45,30.59,30.24,4,1,10,0.00
2013-11-26,34.8,32.5,31.2,30.0,28.2,26.0,94,84,73,30.27,29.98,6,0,9,0.00
2013-11-27,32.2,24.9,18.0,29.0,19.0,12.0,88,78,67,30.36,29.99,8,2,16,0.00
2013-11-28,35.1,23.6,14.2,19.0,14.9,11.0,93,71,46,30.51,30.33,7,1,10,0.00
2013-11-29,39.7,26.2,15.3,24.0,19.3,14.0,96,78,46,30.69,30.51,2,0,7,0.00
2013-11-30,51.5,34.6,22.8,31.0,26.0,21.0,93,74,43,30.56,30.21,10,1,12,0.00
2013-12-1,52.6,43.2,35.1,39.0,32.8,26.0,94,68,50,30.21,29.99,8,1,9,0.00
2013-12-2,49.5,40.7,32.0,41.0,36.8,31.0,98,86,71,29.99,29.80,2,0,4,0.00
2013-12-3,52.1,42.4,32.6,47.0,41.0,32.0,99,94,82,29.90,29.81,2,0,6,0.01
2013-12-4,63.4,54.1,45.1,58.0,52.7,44.0,99,95,82,29.87,29.70,5,1,9,0.00
2013-12-5,64.2,44.4,29.0,59.0,41.1,26.0,94,88,81,30.20,29.76,7,1,13,0.13
2013-12-6,28.8,26.0,25.0,27.0,24.7,23.0,96,94,91,30.45,30.17,5,1,9,0.00
2013-12-7,28.2,20.4,10.1,24.0,16.0,9.0,95,83,66,30.67,30.46,4,0,7,0.00
2013-12-8,31.2,24.1,17.9,31.0,21.3,14.0,98,89,81,30.59,30.07,5,1,9,0.00
2013-12-9,31.5,27.0,21.4,31.0,23.9,16.0,98,88,79,30.28,30.05,8,2,13,0.00
2013-12-10,27.9,21.0,15.0,18.0,14.4,11.0,93,77,51,30.42,30.22,7,1,18,0.00
2013-12-11,35.3,18.7,4.1,23.0,13.6,2.0,96,81,58,30.59,30.36,6,1,16,0.01
2013-12-12,22.8,13.1,-1.6,8.0,3.0,-4.0,92,67,41,30.63,30.42,4,1,11,0.00
2013-12-13,38.9,27.7,14.6,31.0,17.8,6.0,94,68,49,30.42,30.20,7,0,9,0.00
2013-12-14,36.8,33.5,28.9,36.0,32.8,28.0,99,97,93,30.20,29.74,8,1,11,0.10
2013-12-15,28.6,26.3,24.6,27.0,22.8,19.0,96,86,71,30.17,29.95,13,3,14,0.00
2013-12-16,35.7,29.7,25.6,33.0,28.1,24.0,98,94,87,30.16,30.04,4,0,7,0.01
2013-12-17,35.5,28.6,25.5,33.0,26.1,24.0,97,90,83,30.22,30.03,10,2,12,0.00
2013-12-18,37.9,29.2,20.0,25.0,19.2,16.0,96,69,44,30.33,30.09,7,1,12,0.02
2013-12-19,51.6,44.4,37.3,43.0,33.5,22.0,81,66,52,30.11,29.97,8,2,13,0.04
2013-12-20,59.7,54.7,50.9,58.0,49.3,41.0,96,82,67,29.97,29.82,9,3,16,0.00
2013-12-21,65.3,59.1,52.2,64.0,58.2,52.0,100,97,92,29.82,29.44,9,2,19,3.25
2013-12-22,61.7,47.5,34.9,61.0,45.7,33.0,97,93,87,30.08,29.48,13,3,20,0.34
2013-12-23,34.6,28.4,23.1,33.0,24.5,19.0,94,85,80,30.45,30.09,9,2,12,0.00
2013-12-24,23.4,15.0,10.9,19.0,10.7,6.0,95,83,74,30.62,30.43,8,2,13,0.00
2013-12-25,31.0,25.1,17.3,26.0,17.9,14.0,85,74,62,30.54,30.26,5,1,10,0.00
2013-12-26,38.1,31.9,26.9,28.0,24.9,22.0,88,76,56,30.42,30.24,15,2,16,0.00
2013-12-27,47.2,36.1,28.9,33.0,28.3,24.0,89,74,58,30.45,30.32,6,1,10,0.00
2013-12-28,52.6,41.6,31.6,35.0,31.3,28.0,87,68,48,30.31,30.03,9,1,9,0.00
2013-12-29,42.8,37.4,30.0,39.0,34.3,28.0,97,89,61,30.08,29.84,8,2,16,0.24
2013-12-30,29.9,23.6,18.2,28.0,19.1,15.0,92,82,68,30.30,30.09,10,1,10,0.00
2013-12-31,32.9,26.2,21.2,23.0,18.1,14.0,84,72,59,30.44,30.24,11,2,15,0.00
2014-1-1,44.5,31.7,19.7,32.0,26.0,19.0,98,80,56,30.33,30.05,6,0,9,0.00
2014-1-2,35.0,22.4,7.5,31.0,19.7,2.0,97,89,78,30.36,29.88,0,0,2,0.00